createdAt,value
2022-11-05T00:01:51.199Z,5.80
2022-11-05T00:04:36.489Z,6.16
2022-11-05T00:07:36.353Z,5.97
2022-11-05T00:10:08.778Z,5.89
2022-11-05T00:12:55.315Z,5.72
2022-11-05T00:15:40.029Z,5.83
2022-11-05T00:18:06.450Z,5.84
2022-11-05T00:20:32.950Z,5.89
2022-11-05T00:23:22.701Z,6.09
2022-11-05T00:25:56.129Z,6.18
2022-11-05T00:28:23.109Z,6.16
2022-11-05T00:30:49.523Z,5.92
2022-11-05T00:33:16.954Z,5.77
2022-11-05T00:35:43.399Z,5.92
2022-11-05T00:38:10.147Z,6.20
2022-11-05T00:40:36.836Z,6.14
2022-11-05T00:43:22.011Z,6.28
2022-11-05T00:45:48.463Z,6.43
2022-11-05T00:48:33.524Z,6.43
2022-11-05T00:50:59.965Z,6.03
2022-11-05T00:53:26.481Z,6.27
2022-11-05T00:55:52.912Z,6.33
2022-11-05T00:58:21.321Z,6.39
2022-11-05T01:00:53.645Z,6.02
2022-11-05T01:03:23.055Z,6.21
2022-11-05T01:05:52.123Z,6.56
2022-11-05T01:08:23.229Z,5.65
2022-11-05T01:10:53.353Z,6.31
2022-11-05T01:13:22.361Z,5.99
2022-11-05T01:15:50.862Z,6.07
2022-11-05T01:18:18.886Z,6.51
2022-11-05T01:20:45.767Z,6.25
2022-11-05T01:23:13.900Z,6.27
2022-11-05T01:25:41.801Z,6.36
2022-11-05T01:28:09.743Z,5.72
2022-11-05T01:30:36.925Z,6.12
2022-11-05T01:33:03.563Z,5.68
2022-11-05T01:35:30.208Z,5.50
2022-11-05T01:37:56.680Z,6.03
2022-11-05T01:40:24.642Z,5.90
2022-11-05T01:42:51.174Z,6.15
2022-11-05T01:45:24.891Z,6.69
2022-11-05T01:47:59.806Z,6.79
2022-11-05T01:50:50.590Z,6.96
2022-11-05T01:53:44.840Z,6.84
2022-11-05T01:56:13.657Z,6.93
2022-11-05T01:58:45.918Z,6.86
2022-11-05T02:01:12.751Z,6.33
2022-11-05T02:03:39.904Z,6.52
2022-11-05T02:06:09.351Z,6.51
2022-11-05T02:08:50.886Z,6.55
2022-11-05T02:11:19.536Z,6.70
2022-11-05T02:13:47.679Z,5.49
2022-11-05T02:16:38.806Z,6.72
2022-11-05T02:19:23.998Z,6.52
2022-11-05T02:22:15.286Z,6.38
2022-11-05T02:25:04.114Z,6.51
2022-11-05T02:27:52.297Z,6.38
2022-11-05T02:30:49.544Z,6.56
2022-11-05T02:33:43.830Z,6.52
2022-11-05T02:36:28.583Z,6.62
2022-11-05T02:39:06.850Z,6.50
2022-11-05T02:41:50.319Z,6.35
2022-11-05T02:44:45.928Z,6.46
2022-11-05T02:47:30.274Z,6.30
2022-11-05T02:50:23.481Z,6.49
2022-11-05T02:53:09.482Z,6.37
2022-11-05T02:55:45.152Z,6.39
2022-11-05T02:58:11.760Z,6.38
2022-11-05T03:00:47.227Z,6.50
2022-11-05T03:03:26.967Z,5.99
2022-11-05T03:06:50.827Z,6.58
2022-11-05T03:09:34.972Z,6.55
2022-11-05T03:12:38.815Z,6.56
2022-11-05T03:15:05.177Z,6.33
2022-11-05T03:17:46.668Z,6.31
2022-11-05T03:20:30.454Z,6.39
2022-11-05T03:23:09.743Z,6.25
2022-11-05T03:25:43.319Z,6.28
2022-11-05T03:28:11.951Z,6.28
2022-11-05T03:30:40.964Z,6.38
2022-11-05T03:33:19.915Z,6.48
2022-11-05T03:35:54.019Z,6.23
2022-11-05T03:38:27.116Z,6.26
2022-11-05T03:40:57.000Z,6.37
2022-11-05T03:43:29.604Z,6.37
2022-11-05T03:46:08.029Z,6.46
2022-11-05T03:48:40.364Z,6.23
2022-11-05T03:51:43.073Z,6.40
2022-11-05T03:54:14.307Z,6.38
2022-11-05T03:56:52.771Z,6.50
2022-11-05T03:59:20.416Z,6.27
2022-11-05T04:01:48.091Z,6.12
2022-11-05T04:04:14.626Z,6.11
2022-11-05T04:06:59.807Z,6.08
2022-11-05T04:09:44.654Z,5.98
2022-11-05T04:12:29.972Z,5.96
2022-11-05T04:14:56.514Z,5.61
2022-11-05T04:17:23.013Z,5.90
2022-11-05T04:20:07.754Z,5.87
2022-11-05T04:22:54.563Z,5.90
2022-11-05T04:25:22.075Z,5.74
2022-11-05T04:27:49.121Z,5.82
2022-11-05T04:30:20.096Z,4.63
2022-11-05T04:32:59.982Z,5.33
2022-11-05T04:35:40.825Z,5.21
2022-11-05T04:38:10.415Z,5.89
2022-11-05T04:40:41.005Z,5.65
2022-11-05T04:46:09.564Z,5.10
2022-11-05T04:51:47.674Z,5.34
2022-11-05T05:12:51.909Z,5.34
2022-11-05T05:15:48.491Z,5.96
2022-11-05T05:39:04.795Z,6.17
2022-11-05T05:48:18.562Z,5.22
2022-11-05T06:08:20.576Z,4.59
2022-11-05T06:10:51.575Z,5.89
2022-11-05T06:13:18.089Z,4.27
2022-11-05T06:15:44.644Z,5.49
2022-11-05T06:18:13.093Z,5.82
2022-11-05T06:23:35.960Z,5.06
2022-11-05T06:31:57.006Z,5.59
2022-11-05T06:34:23.540Z,5.28
2022-11-05T06:36:50.080Z,5.32
2022-11-05T06:39:16.512Z,5.96
2022-11-05T06:42:11.930Z,5.19
2022-11-05T06:44:30.200Z,5.13
2022-11-05T06:46:56.629Z,5.17
2022-11-05T06:49:24.714Z,5.72
2022-11-05T06:51:52.055Z,5.75
2022-11-05T06:54:18.470Z,6.05
2022-11-05T06:56:45.035Z,6.03
2022-11-05T06:59:11.559Z,6.01
2022-11-05T07:01:38.323Z,6.30
2022-11-05T07:04:05.023Z,5.81
2022-11-05T07:06:36.867Z,5.98
2022-11-05T07:09:04.263Z,6.05
2022-11-05T07:11:31.161Z,4.55
2022-11-05T07:13:57.583Z,5.31
2022-11-05T07:16:24.083Z,6.13
2022-11-05T07:18:52.914Z,5.68
2022-11-05T07:21:19.778Z,5.70
2022-11-05T07:23:46.282Z,5.65
2022-11-05T07:26:12.708Z,5.59
2022-11-05T07:28:39.152Z,6.15
2022-11-05T07:31:05.745Z,6.33
2022-11-05T07:33:36.316Z,6.50
2022-11-05T07:36:03.242Z,6.30
2022-11-05T07:38:29.774Z,6.36
2022-11-05T07:40:59.219Z,6.52
2022-11-05T07:43:25.710Z,6.58
2022-11-05T07:45:52.119Z,5.70
2022-11-05T07:48:18.527Z,6.20
2022-11-05T07:50:44.967Z,6.08
2022-11-05T07:53:14.198Z,6.55
2022-11-05T07:55:41.714Z,6.28
2022-11-05T07:58:08.169Z,6.38
2022-11-05T08:00:34.697Z,6.13
2022-11-05T08:03:08.501Z,6.56
2022-11-05T08:05:37.789Z,6.88
2022-11-05T08:08:06.141Z,7.07
2022-11-05T08:10:34.178Z,6.62
2022-11-05T08:13:02.123Z,6.71
2022-11-05T08:15:28.913Z,6.58
2022-11-05T08:18:04.078Z,6.51
2022-11-05T08:20:31.477Z,6.50
2022-11-05T08:22:58.048Z,6.58
2022-11-05T08:25:26.057Z,6.58
2022-11-05T08:28:01.185Z,6.32
2022-11-05T08:30:28.736Z,6.18
2022-11-05T08:33:04.010Z,5.68
2022-11-05T08:35:30.932Z,5.69
2022-11-05T08:37:59.100Z,5.37
2022-11-05T08:40:26.424Z,5.75
2022-11-05T08:42:57.367Z,5.56
2022-11-05T08:45:24.872Z,5.47
2022-11-05T08:47:51.339Z,5.11
2022-11-05T08:50:17.879Z,5.25
2022-11-05T08:52:44.282Z,5.29
2022-11-05T08:55:10.770Z,5.38
2022-11-05T08:57:37.170Z,5.39
2022-11-05T09:00:03.881Z,5.11
2022-11-05T09:02:30.434Z,5.54
2022-11-05T09:04:56.891Z,4.84
2022-11-05T09:07:23.301Z,5.21
2022-11-05T09:09:49.748Z,5.17
2022-11-05T09:12:18.199Z,4.93
2022-11-05T09:14:44.739Z,5.23
2022-11-05T09:17:20.147Z,4.99
2022-11-05T09:19:47.314Z,5.36
2022-11-05T09:22:14.583Z,5.29
2022-11-05T09:24:46.124Z,4.99
2022-11-05T09:27:16.101Z,4.97
2022-11-05T09:29:42.608Z,5.08
2022-11-05T09:32:09.274Z,5.46
2022-11-05T09:34:36.005Z,5.30
2022-11-05T09:37:02.653Z,5.17
2022-11-05T09:39:29.393Z,5.56
2022-11-05T09:42:01.912Z,5.26
2022-11-05T09:44:43.620Z,5.49
2022-11-05T09:47:21.815Z,5.09
2022-11-05T09:49:52.406Z,5.36
2022-11-05T09:52:23.208Z,5.52
2022-11-05T09:54:54.284Z,5.40
2022-11-05T09:57:26.287Z,5.05
2022-11-05T09:59:59.034Z,5.27
2022-11-05T10:02:42.595Z,5.28
2022-11-05T10:05:12.426Z,5.28
2022-11-05T10:07:50.142Z,5.26
2022-11-05T10:10:40.789Z,5.48
2022-11-05T10:13:24.556Z,5.49
2022-11-05T10:16:02.149Z,5.21
2022-11-05T10:18:36.859Z,5.37
2022-11-05T10:21:04.948Z,5.28
2022-11-05T10:23:32.877Z,6.01
2022-11-05T10:26:13.882Z,5.82
2022-11-05T10:28:40.669Z,5.59
2022-11-05T10:31:12.572Z,4.70
2022-11-05T10:34:04.091Z,5.85
2022-11-05T10:36:37.018Z,5.65
2022-11-05T10:39:13.375Z,5.80
2022-11-05T10:41:41.316Z,6.25
2022-11-05T10:44:24.056Z,5.99
2022-11-05T10:47:15.255Z,5.90
2022-11-05T10:49:45.935Z,6.58
2022-11-05T10:52:37.702Z,6.09
2022-11-05T10:55:29.324Z,6.32
2022-11-05T10:58:07.422Z,6.30
2022-11-05T11:00:33.918Z,6.55
2022-11-05T11:03:03.856Z,6.30
2022-11-05T11:05:33.613Z,6.39
2022-11-05T11:08:12.220Z,6.23
2022-11-05T11:10:54.624Z,6.01
2022-11-05T11:13:24.039Z,6.39
2022-11-05T11:15:51.339Z,6.19
2022-11-05T11:18:25.426Z,6.42
2022-11-05T11:21:12.410Z,6.43
2022-11-05T11:23:41.775Z,6.51
2022-11-05T11:26:10.962Z,6.94
2022-11-05T11:28:43.331Z,6.52
2022-11-05T11:31:14.136Z,6.88
2022-11-05T11:33:44.615Z,6.72
2022-11-05T11:36:12.528Z,7.02
2022-11-05T11:38:40.032Z,7.44
2022-11-05T11:41:36.495Z,7.54
2022-11-05T11:44:11.292Z,7.72
2022-11-05T11:46:38.087Z,7.24
2022-11-05T11:49:06.445Z,7.27
2022-11-05T11:51:37.642Z,7.91
2022-11-05T11:54:05.134Z,7.62
2022-11-05T11:56:48.739Z,7.53
2022-11-05T11:59:46.664Z,7.81
2022-11-05T12:02:25.431Z,8.06
2022-11-05T12:05:07.115Z,7.77
2022-11-05T12:07:52.784Z,7.63
2022-11-05T12:10:26.003Z,7.64
2022-11-05T12:13:20.563Z,7.45
2022-11-05T12:16:19.333Z,7.48
2022-11-05T12:19:07.629Z,7.30
2022-11-05T12:21:51.859Z,7.30
2022-11-05T12:24:49.845Z,7.26
2022-11-05T12:27:19.170Z,7.29
2022-11-05T12:30:15.807Z,7.37
2022-11-05T12:32:54.600Z,7.17
2022-11-05T12:35:34.335Z,7.07
2022-11-05T12:38:26.230Z,6.72
2022-11-05T12:41:07.469Z,6.59
2022-11-05T12:44:09.861Z,6.53
2022-11-05T12:46:49.871Z,6.41
2022-11-05T12:49:35.995Z,6.30
2022-11-05T12:52:40.087Z,6.71
2022-11-05T12:55:15.372Z,6.63
2022-11-05T12:57:45.433Z,6.48
2022-11-05T13:00:23.212Z,6.79
2022-11-05T13:03:28.551Z,6.94
2022-11-05T13:06:06.169Z,6.86
2022-11-05T13:08:56.344Z,6.90
2022-11-05T13:11:44.041Z,6.78
2022-11-05T13:14:15.466Z,6.85
2022-11-05T13:16:53.812Z,6.81
2022-11-05T13:19:32.023Z,6.85
2022-11-05T13:22:11.266Z,6.86
2022-11-05T13:25:02.827Z,6.62
2022-11-05T13:27:50.391Z,6.46
2022-11-05T13:30:22.761Z,6.45
2022-11-05T13:32:57.878Z,6.56
2022-11-05T13:35:40.093Z,6.38
2022-11-05T13:38:30.553Z,6.41
2022-11-05T13:41:10.808Z,6.47
2022-11-05T13:44:12.550Z,6.18
2022-11-05T13:47:16.375Z,6.34
2022-11-05T13:49:48.897Z,6.63
2022-11-05T13:52:54.552Z,6.68
2022-11-05T13:55:48.771Z,6.57
2022-11-05T13:58:51.955Z,6.54
2022-11-05T14:01:54.747Z,6.70
2022-11-05T14:04:58.048Z,6.92
2022-11-05T14:07:31.484Z,6.85
2022-11-05T14:10:14.273Z,7.01
2022-11-05T14:12:41.759Z,6.97
2022-11-05T14:15:20.022Z,6.89
2022-11-05T14:18:34.797Z,6.99
2022-11-05T14:21:03.467Z,6.99
2022-11-05T14:23:30.710Z,6.83
2022-11-05T14:26:13.036Z,7.14
2022-11-05T14:28:43.310Z,6.96
2022-11-05T14:31:18.746Z,6.99
2022-11-05T14:34:18.708Z,6.80
2022-11-05T14:37:16.922Z,6.56
2022-11-05T14:39:44.058Z,6.72
2022-11-05T14:42:16.884Z,6.71
2022-11-05T14:45:25.018Z,6.74
2022-11-05T14:47:55.702Z,6.58
2022-11-05T14:50:31.042Z,6.64
2022-11-05T14:53:02.142Z,6.41
2022-11-05T14:55:36.337Z,6.21
2022-11-05T14:58:07.019Z,6.38
2022-11-05T15:00:49.833Z,6.34
2022-11-05T15:03:39.782Z,6.33
2022-11-05T15:06:30.651Z,6.27
2022-11-05T15:09:00.890Z,6.37
2022-11-05T15:11:40.774Z,6.33
2022-11-05T15:14:21.827Z,6.12
2022-11-05T15:17:18.173Z,6.05
2022-11-05T15:19:45.651Z,6.12
2022-11-05T15:22:28.151Z,6.10
2022-11-05T15:24:55.228Z,5.92
2022-11-05T15:27:40.313Z,6.05
2022-11-05T15:30:25.496Z,6.16
2022-11-05T15:32:52.615Z,6.25
2022-11-05T15:35:21.746Z,6.12
2022-11-05T15:37:54.706Z,6.19
2022-11-05T15:40:29.944Z,6.14
2022-11-05T15:43:19.819Z,5.94
2022-11-05T15:46:13.872Z,5.93
2022-11-05T15:48:40.396Z,6.09
2022-11-05T15:51:12.282Z,5.97
2022-11-05T15:53:56.482Z,6.09
2022-11-05T15:56:28.043Z,6.14
2022-11-05T15:59:07.211Z,6.01
2022-11-05T16:01:37.285Z,6.02
2022-11-05T16:04:20.914Z,6.27
2022-11-05T16:06:53.785Z,6.10
2022-11-05T16:09:29.163Z,6.29
2022-11-05T16:12:20.483Z,6.28
2022-11-05T16:15:08.298Z,6.23
2022-11-05T16:17:37.825Z,6.14
2022-11-05T16:20:17.817Z,6.19
2022-11-05T16:22:49.149Z,6.00
2022-11-05T16:25:35.191Z,5.90
2022-11-05T16:28:20.287Z,5.77
2022-11-05T16:31:00.440Z,5.89
2022-11-05T16:33:33.258Z,6.08
2022-11-05T16:35:59.883Z,5.73
2022-11-05T16:38:26.299Z,5.78
2022-11-05T16:40:52.691Z,6.18
2022-11-05T16:43:25.065Z,6.21
2022-11-05T16:46:17.549Z,6.13
2022-11-05T16:48:44.028Z,5.85
2022-11-05T16:51:11.434Z,5.92
2022-11-05T16:53:37.921Z,6.00
2022-11-05T16:56:04.674Z,6.14
2022-11-05T16:58:31.331Z,6.04
2022-11-05T17:01:17.654Z,5.96
2022-11-05T17:03:45.331Z,6.07
2022-11-05T17:06:13.384Z,6.20
2022-11-05T17:08:40.574Z,6.07
2022-11-05T17:11:07.231Z,6.18
2022-11-05T17:13:33.724Z,6.10
2022-11-05T17:16:01.084Z,5.97
2022-11-05T17:18:27.575Z,6.05
2022-11-05T17:20:55.806Z,6.33
2022-11-05T17:23:26.652Z,6.15
2022-11-05T17:26:00.973Z,6.21
2022-11-05T17:28:29.073Z,5.99
2022-11-05T17:30:57.974Z,5.83
2022-11-05T17:33:24.478Z,5.70
2022-11-05T17:35:51.685Z,5.79
2022-11-05T17:38:18.906Z,5.77
2022-11-05T17:40:45.735Z,5.62
2022-11-05T17:43:12.556Z,5.47
2022-11-05T17:45:47.320Z,5.66
2022-11-05T17:48:14.877Z,5.77
2022-11-05T17:50:49.248Z,5.64
2022-11-05T17:53:18.138Z,5.46
2022-11-05T17:55:46.499Z,5.72
2022-11-05T17:58:12.943Z,5.64
2022-11-05T18:00:40.651Z,5.68
2022-11-05T18:03:12.099Z,5.63
2022-11-05T18:05:40.013Z,5.77
2022-11-05T18:08:07.574Z,5.62
2022-11-05T18:10:37.024Z,5.53
2022-11-05T18:13:03.798Z,5.39
2022-11-05T18:15:30.241Z,5.64
2022-11-05T18:17:56.657Z,5.68
2022-11-05T18:20:23.230Z,5.37
2022-11-05T18:22:50.384Z,5.41
2022-11-05T18:25:17.854Z,5.65
2022-11-05T18:27:46.294Z,5.48
2022-11-05T18:30:15.433Z,5.58
2022-11-05T18:32:43.206Z,5.49
2022-11-05T18:35:10.025Z,5.61
2022-11-05T18:37:39.466Z,5.72
2022-11-05T18:40:07.450Z,5.56
2022-11-05T18:42:33.945Z,5.72
2022-11-05T18:45:00.538Z,5.62
2022-11-05T18:47:26.955Z,5.52
2022-11-05T18:49:53.363Z,5.55
2022-11-05T18:52:19.770Z,5.56
2022-11-05T18:54:46.209Z,5.44
2022-11-05T18:57:12.595Z,5.54
2022-11-05T18:59:42.020Z,5.54
2022-11-05T19:02:10.863Z,5.69
2022-11-05T19:04:37.460Z,5.55
2022-11-05T19:07:05.903Z,5.56
2022-11-05T19:09:37.035Z,5.45
2022-11-05T19:12:04.541Z,5.55
2022-11-05T19:14:31.255Z,5.49
2022-11-05T19:16:59.009Z,5.35
2022-11-05T19:19:26.188Z,5.39
2022-11-05T19:21:52.630Z,5.25
2022-11-05T19:24:19.059Z,5.26
2022-11-05T19:26:46.657Z,5.09
2022-11-05T19:29:13.231Z,4.94
2022-11-05T19:31:39.659Z,4.85
2022-11-05T19:34:06.094Z,4.82
2022-11-05T19:36:33.378Z,4.74
2022-11-05T19:39:02.602Z,4.62
2022-11-05T19:41:29.120Z,4.76
2022-11-05T19:43:57.828Z,4.71
2022-11-05T19:46:24.976Z,4.59
2022-11-05T19:48:51.956Z,4.48
2022-11-05T19:51:23.673Z,4.50
2022-11-05T19:54:05.162Z,4.30
2022-11-05T19:56:33.509Z,4.42
2022-11-05T19:59:01.098Z,4.25
2022-11-05T20:01:28.725Z,4.11
2022-11-05T20:04:02.508Z,3.88
2022-11-05T20:06:37.714Z,3.86
2022-11-05T20:09:21.061Z,4.03
2022-11-05T20:11:49.768Z,3.71
2022-11-05T20:14:17.362Z,3.79
2022-11-05T20:16:45.944Z,3.65
2022-11-05T20:19:18.744Z,3.53
2022-11-05T20:22:01.703Z,3.57
2022-11-05T20:24:28.385Z,3.57
2022-11-05T20:26:56.045Z,3.40
2022-11-05T20:29:23.963Z,3.43
2022-11-05T20:31:51.205Z,3.36
2022-11-05T20:34:24.214Z,3.43
2022-11-05T20:36:56.718Z,3.42
2022-11-05T20:39:31.339Z,3.43
2022-11-05T20:42:00.345Z,3.47
2022-11-05T20:44:26.758Z,3.54
2022-11-05T20:46:53.250Z,3.47
2022-11-05T20:49:25.013Z,3.76
2022-11-05T20:52:17.228Z,3.62
2022-11-05T20:54:44.244Z,3.48
2022-11-05T20:57:16.530Z,3.49
2022-11-05T20:59:42.946Z,3.49
2022-11-05T21:02:12.016Z,3.54
2022-11-05T21:04:41.355Z,3.57
2022-11-05T21:07:07.821Z,3.55
2022-11-05T21:09:34.240Z,3.37
2022-11-05T21:12:12.921Z,3.45
2022-11-05T21:14:41.203Z,3.84
2022-11-05T21:17:09.813Z,3.61
2022-11-05T21:19:41.268Z,3.47
2022-11-05T21:22:07.813Z,3.63
2022-11-05T21:24:34.379Z,3.54
2022-11-05T21:27:01.527Z,3.58
2022-11-05T21:29:27.964Z,3.41
2022-11-05T21:31:54.430Z,3.40
2022-11-05T21:34:20.838Z,3.22
2022-11-05T21:36:47.282Z,3.33
2022-11-05T21:39:14.059Z,3.29
2022-11-05T21:41:43.583Z,2.97
2022-11-05T21:44:10.232Z,2.79
2022-11-05T21:46:37.793Z,2.70
2022-11-05T21:49:04.333Z,2.83
2022-11-05T21:51:49.569Z,2.91
2022-11-05T21:54:34.975Z,2.81
2022-11-05T21:57:20.392Z,2.88
2022-11-05T21:59:51.690Z,3.00
2022-11-05T22:02:20.922Z,3.10
2022-11-05T22:04:55.195Z,2.77
2022-11-05T22:07:25.204Z,3.09
2022-11-05T22:09:51.827Z,2.92
2022-11-05T22:12:18.739Z,3.09
2022-11-05T22:14:45.146Z,2.82
2022-11-05T22:17:12.876Z,3.06
2022-11-05T22:19:39.596Z,3.12
2022-11-05T22:22:06.818Z,3.15
2022-11-05T22:24:34.542Z,3.11
2022-11-05T22:27:04.444Z,3.22
2022-11-05T22:29:50.062Z,3.23
2022-11-05T22:32:16.887Z,3.16
2022-11-05T22:34:43.271Z,3.09
2022-11-05T22:37:12.300Z,3.34
2022-11-05T22:39:38.735Z,3.41
2022-11-05T22:42:08.494Z,3.35
2022-11-05T22:44:36.543Z,3.09
2022-11-05T22:47:03.284Z,3.09
2022-11-05T22:49:29.714Z,2.99
2022-11-05T22:52:05.505Z,3.35
2022-11-05T22:54:37.876Z,3.46
2022-11-05T22:57:05.439Z,3.13
2022-11-05T22:59:31.866Z,3.13
2022-11-05T23:01:58.338Z,3.07
2022-11-05T23:04:40.177Z,2.79
2022-11-05T23:07:27.874Z,2.82
2022-11-05T23:10:13.403Z,3.01
2022-11-05T23:12:39.958Z,2.96
2022-11-05T23:15:07.879Z,3.04
2022-11-05T23:17:53.874Z,2.97
2022-11-05T23:20:41.616Z,2.77
2022-11-05T23:23:30.609Z,2.65
2022-11-05T23:25:58.854Z,2.65
2022-11-05T23:28:25.448Z,2.45
2022-11-05T23:31:11.216Z,2.35
2022-11-05T23:33:39.743Z,2.42
2022-11-05T23:36:24.967Z,2.36
2022-11-05T23:38:51.363Z,2.32
2022-11-05T23:41:36.444Z,2.37
2022-11-05T23:44:21.181Z,2.63
2022-11-05T23:47:08.075Z,2.44
2022-11-05T23:49:34.392Z,2.52
2022-11-05T23:52:00.785Z,2.44
2022-11-05T23:54:27.267Z,2.55
2022-11-05T23:56:53.668Z,2.85
2022-11-05T23:59:20.229Z,2.82
